sensor_id;sensor_type;location;lat;lon;timestamp;P1;durP1;ratioP1;P2;durP2;ratioP2
34064;SDS011;20339;49.754;20.158;2022-12-22T00:02:17;14.10;;;8.20;;
34064;SDS011;20339;49.754;20.158;2022-12-22T00:05:12;15.90;;;10.20;;
34064;SDS011;20339;49.754;20.158;2022-12-22T00:08:05;18.40;;;11.50;;
34064;SDS011;20339;49.754;20.158;2022-12-22T00:10:54;18.30;;;11.50;;
34064;SDS011;20339;49.754;20.158;2022-12-22T00:13:44;18.60;;;11.50;;
34064;SDS011;20339;49.754;20.158;2022-12-22T00:16:33;16.20;;;10.00;;
34064;SDS011;20339;49.754;20.158;2022-12-22T00:19:23;20.30;;;13.20;;
34064;SDS011;20339;49.754;20.158;2022-12-22T00:22:13;19.70;;;12.70;;
34064;SDS011;20339;49.754;20.158;2022-12-22T00:25:06;16.00;;;8.60;;
34064;SDS011;20339;49.754;20.158;2022-12-22T00:27:58;16.20;;;11.30;;
34064;SDS011;20339;49.754;20.158;2022-12-22T00:30:48;19.50;;;13.00;;
34064;SDS011;20339;49.754;20.158;2022-12-22T00:33:37;18.00;;;12.00;;
34064;SDS011;20339;49.754;20.158;2022-12-22T00:36:25;18.80;;;12.10;;
34064;SDS011;20339;49.754;20.158;2022-12-22T00:39:16;17.60;;;11.80;;
34064;SDS011;20339;49.754;20.158;2022-12-22T00:42:04;17.70;;;12.10;;
34064;SDS011;20339;49.754;20.158;2022-12-22T00:44:53;18.80;;;12.20;;
34064;SDS011;20339;49.754;20.158;2022-12-22T00:47:43;16.30;;;11.90;;
34064;SDS011;20339;49.754;20.158;2022-12-22T00:50:32;19.10;;;12.70;;
34064;SDS011;20339;49.754;20.158;2022-12-22T00:53:22;17.30;;;11.60;;
34064;SDS011;20339;49.754;20.158;2022-12-22T00:56:11;19.20;;;12.00;;
34064;SDS011;20339;49.754;20.158;2022-12-22T00:59:00;17.80;;;12.70;;
34064;SDS011;20339;49.754;20.158;2022-12-22T01:01:48;20.20;;;12.40;;
34064;SDS011;20339;49.754;20.158;2022-12-22T01:04:37;18.50;;;12.30;;
34064;SDS011;20339;49.754;20.158;2022-12-22T01:07:26;15.60;;;10.90;;
34064;SDS011;20339;49.754;20.158;2022-12-22T01:10:18;17.30;;;12.10;;
34064;SDS011;20339;49.754;20.158;2022-12-22T01:13:10;17.30;;;10.40;;
34064;SDS011;20339;49.754;20.158;2022-12-22T01:16:00;18.40;;;12.70;;
34064;SDS011;20339;49.754;20.158;2022-12-22T01:18:48;17.70;;;11.50;;
34064;SDS011;20339;49.754;20.158;2022-12-22T01:21:38;15.20;;;10.40;;
34064;SDS011;20339;49.754;20.158;2022-12-22T01:24:27;15.70;;;11.30;;
34064;SDS011;20339;49.754;20.158;2022-12-22T01:27:17;16.20;;;10.80;;
34064;SDS011;20339;49.754;20.158;2022-12-22T01:30:06;17.10;;;9.40;;
34064;SDS011;20339;49.754;20.158;2022-12-22T01:32:56;16.70;;;11.20;;
34064;SDS011;20339;49.754;20.158;2022-12-22T01:35:44;16.40;;;9.30;;
34064;SDS011;20339;49.754;20.158;2022-12-22T01:38:33;13.90;;;8.10;;
34064;SDS011;20339;49.754;20.158;2022-12-22T01:41:22;11.80;;;7.60;;
34064;SDS011;20339;49.754;20.158;2022-12-22T01:44:13;11.10;;;7.40;;
34064;SDS011;20339;49.754;20.158;2022-12-22T01:50:23;10.30;;;6.70;;
34064;SDS011;20339;49.754;20.158;2022-12-22T01:53:16;10.20;;;6.10;;
34064;SDS011;20339;49.754;20.158;2022-12-22T01:56:07;12.70;;;7.80;;
34064;SDS011;20339;49.754;20.158;2022-12-22T01:58:57;9.60;;;6.70;;
34064;SDS011;20339;49.754;20.158;2022-12-22T02:01:49;11.90;;;7.80;;
34064;SDS011;20339;49.754;20.158;2022-12-22T02:04:38;11.00;;;7.10;;
34064;SDS011;20339;49.754;20.158;2022-12-22T02:07:36;10.50;;;5.70;;
34064;SDS011;20339;49.754;20.158;2022-12-22T02:10:38;9.50;;;5.60;;
34064;SDS011;20339;49.754;20.158;2022-12-22T02:13:39;10.10;;;6.30;;
34064;SDS011;20339;49.754;20.158;2022-12-22T02:16:36;7.30;;;4.30;;
34064;SDS011;20339;49.754;20.158;2022-12-22T02:19:37;11.20;;;7.70;;
34064;SDS011;20339;49.754;20.158;2022-12-22T02:22:42;7.40;;;4.80;;
34064;SDS011;20339;49.754;20.158;2022-12-22T02:25:40;10.20;;;6.50;;
34064;SDS011;20339;49.754;20.158;2022-12-22T02:28:35;9.50;;;5.50;;
34064;SDS011;20339;49.754;20.158;2022-12-22T02:31:25;7.60;;;5.00;;
34064;SDS011;20339;49.754;20.158;2022-12-22T02:34:28;10.00;;;5.10;;
34064;SDS011;20339;49.754;20.158;2022-12-22T02:37:18;10.30;;;5.70;;
34064;SDS011;20339;49.754;20.158;2022-12-22T02:40:15;7.50;;;4.60;;
34064;SDS011;20339;49.754;20.158;2022-12-22T02:43:12;7.60;;;4.10;;
34064;SDS011;20339;49.754;20.158;2022-12-22T02:46:13;8.20;;;5.00;;
34064;SDS011;20339;49.754;20.158;2022-12-22T02:49:09;6.40;;;3.90;;
34064;SDS011;20339;49.754;20.158;2022-12-22T02:52:09;7.20;;;4.60;;
34064;SDS011;20339;49.754;20.158;2022-12-22T02:55:01;5.20;;;3.30;;
34064;SDS011;20339;49.754;20.158;2022-12-22T02:57:57;5.30;;;3.10;;
34064;SDS011;20339;49.754;20.158;2022-12-22T03:00:47;5.20;;;3.20;;
34064;SDS011;20339;49.754;20.158;2022-12-22T03:03:38;7.40;;;4.60;;
34064;SDS011;20339;49.754;20.158;2022-12-22T03:06:28;6.80;;;4.00;;
34064;SDS011;20339;49.754;20.158;2022-12-22T03:09:16;6.00;;;3.20;;
34064;SDS011;20339;49.754;20.158;2022-12-22T03:12:10;6.00;;;3.20;;
34064;SDS011;20339;49.754;20.158;2022-12-22T03:15:01;7.60;;;4.90;;
34064;SDS011;20339;49.754;20.158;2022-12-22T03:17:50;5.90;;;3.70;;
34064;SDS011;20339;49.754;20.158;2022-12-22T03:20:39;8.90;;;5.40;;
34064;SDS011;20339;49.754;20.158;2022-12-22T03:23:30;8.00;;;5.10;;
34064;SDS011;20339;49.754;20.158;2022-12-22T03:26:19;8.30;;;5.30;;
34064;SDS011;20339;49.754;20.158;2022-12-22T03:28:51;9.60;;;5.30;;
34064;SDS011;20339;49.754;20.158;2022-12-22T03:31:28;10.40;;;6.00;;
34064;SDS011;20339;49.754;20.158;2022-12-22T03:33:59;7.60;;;5.20;;
34064;SDS011;20339;49.754;20.158;2022-12-22T03:36:36;9.50;;;6.30;;
34064;SDS011;20339;49.754;20.158;2022-12-22T03:39:09;10.10;;;6.10;;
34064;SDS011;20339;49.754;20.158;2022-12-22T03:41:40;6.50;;;4.50;;
34064;SDS011;20339;49.754;20.158;2022-12-22T03:44:30;12.80;;;7.80;;
34064;SDS011;20339;49.754;20.158;2022-12-22T03:47:19;13.50;;;8.20;;
34064;SDS011;20339;49.754;20.158;2022-12-22T03:49:53;12.70;;;7.80;;
34064;SDS011;20339;49.754;20.158;2022-12-22T03:52:25;9.30;;;6.30;;
34064;SDS011;20339;49.754;20.158;2022-12-22T03:54:59;9.20;;;7.10;;
34064;SDS011;20339;49.754;20.158;2022-12-22T03:57:30;10.20;;;7.30;;
34064;SDS011;20339;49.754;20.158;2022-12-22T04:00:01;12.70;;;8.80;;
34064;SDS011;20339;49.754;20.158;2022-12-22T04:02:37;10.60;;;7.00;;
34064;SDS011;20339;49.754;20.158;2022-12-22T04:05:08;10.50;;;7.00;;
34064;SDS011;20339;49.754;20.158;2022-12-22T04:07:41;10.10;;;5.60;;
34064;SDS011;20339;49.754;20.158;2022-12-22T04:10:12;12.00;;;7.90;;
34064;SDS011;20339;49.754;20.158;2022-12-22T04:13:01;9.60;;;6.90;;
34064;SDS011;20339;49.754;20.158;2022-12-22T04:15:37;11.20;;;7.80;;
34064;SDS011;20339;49.754;20.158;2022-12-22T04:18:08;11.50;;;6.90;;
34064;SDS011;20339;49.754;20.158;2022-12-22T04:20:39;11.10;;;7.90;;
34064;SDS011;20339;49.754;20.158;2022-12-22T04:23:14;9.60;;;6.50;;
34064;SDS011;20339;49.754;20.158;2022-12-22T04:25:48;11.40;;;8.20;;
34064;SDS011;20339;49.754;20.158;2022-12-22T04:28:21;9.40;;;5.80;;
34064;SDS011;20339;49.754;20.158;2022-12-22T04:30:53;12.10;;;6.30;;
34064;SDS011;20339;49.754;20.158;2022-12-22T04:33:24;9.10;;;5.50;;
34064;SDS011;20339;49.754;20.158;2022-12-22T04:35:57;10.20;;;7.30;;
34064;SDS011;20339;49.754;20.158;2022-12-22T04:38:28;12.50;;;8.50;;
34064;SDS011;20339;49.754;20.158;2022-12-22T04:41:03;10.00;;;7.20;;
34064;SDS011;20339;49.754;20.158;2022-12-22T04:43:36;10.00;;;6.20;;
34064;SDS011;20339;49.754;20.158;2022-12-22T04:46:08;10.00;;;6.20;;
34064;SDS011;20339;49.754;20.158;2022-12-22T04:48:41;10.70;;;6.50;;
34064;SDS011;20339;49.754;20.158;2022-12-22T04:51:12;9.00;;;6.10;;
34064;SDS011;20339;49.754;20.158;2022-12-22T04:53:44;18.40;;;10.70;;
34064;SDS011;20339;49.754;20.158;2022-12-22T04:56:16;14.40;;;7.40;;
34064;SDS011;20339;49.754;20.158;2022-12-22T04:58:47;15.80;;;9.50;;
34064;SDS011;20339;49.754;20.158;2022-12-22T05:01:18;20.70;;;10.70;;
34064;SDS011;20339;49.754;20.158;2022-12-22T05:03:50;19.90;;;9.50;;
34064;SDS011;20339;49.754;20.158;2022-12-22T05:06:21;12.50;;;5.80;;
34064;SDS011;20339;49.754;20.158;2022-12-22T05:08:52;18.50;;;9.10;;
34064;SDS011;20339;49.754;20.158;2022-12-22T05:11:26;16.40;;;9.10;;
34064;SDS011;20339;49.754;20.158;2022-12-22T05:13:57;12.40;;;7.20;;
34064;SDS011;20339;49.754;20.158;2022-12-22T05:16:28;12.50;;;8.90;;
34064;SDS011;20339;49.754;20.158;2022-12-22T05:19:00;18.00;;;10.40;;
34064;SDS011;20339;49.754;20.158;2022-12-22T05:21:33;11.30;;;8.00;;
34064;SDS011;20339;49.754;20.158;2022-12-22T05:24:05;13.30;;;9.50;;
34064;SDS011;20339;49.754;20.158;2022-12-22T05:26:36;11.10;;;7.50;;
34064;SDS011;20339;49.754;20.158;2022-12-22T05:29:08;10.50;;;6.50;;
34064;SDS011;20339;49.754;20.158;2022-12-22T05:31:42;11.70;;;6.80;;
34064;SDS011;20339;49.754;20.158;2022-12-22T05:34:15;11.10;;;6.70;;
34064;SDS011;20339;49.754;20.158;2022-12-22T05:36:46;9.40;;;6.10;;
34064;SDS011;20339;49.754;20.158;2022-12-22T05:39:17;11.50;;;6.40;;
34064;SDS011;20339;49.754;20.158;2022-12-22T05:41:49;10.90;;;7.50;;
34064;SDS011;20339;49.754;20.158;2022-12-22T05:44:23;7.70;;;4.70;;
34064;SDS011;20339;49.754;20.158;2022-12-22T05:46:55;9.50;;;6.00;;
34064;SDS011;20339;49.754;20.158;2022-12-22T05:49:29;10.20;;;6.60;;
34064;SDS011;20339;49.754;20.158;2022-12-22T05:52:01;8.40;;;5.00;;
34064;SDS011;20339;49.754;20.158;2022-12-22T05:54:33;9.90;;;6.60;;
34064;SDS011;20339;49.754;20.158;2022-12-22T05:57:05;8.80;;;5.60;;
34064;SDS011;20339;49.754;20.158;2022-12-22T05:59:37;10.20;;;6.40;;
34064;SDS011;20339;49.754;20.158;2022-12-22T06:02:09;10.30;;;5.50;;
34064;SDS011;20339;49.754;20.158;2022-12-22T06:04:43;8.60;;;5.20;;
34064;SDS011;20339;49.754;20.158;2022-12-22T06:07:15;7.20;;;4.50;;
34064;SDS011;20339;49.754;20.158;2022-12-22T06:09:46;9.40;;;5.30;;
34064;SDS011;20339;49.754;20.158;2022-12-22T06:12:19;6.50;;;3.70;;
34064;SDS011;20339;49.754;20.158;2022-12-22T06:14:51;6.70;;;4.60;;
34064;SDS011;20339;49.754;20.158;2022-12-22T06:17:24;7.10;;;4.70;;
34064;SDS011;20339;49.754;20.158;2022-12-22T06:19:56;7.40;;;4.00;;
34064;SDS011;20339;49.754;20.158;2022-12-22T06:22:29;8.50;;;4.00;;
34064;SDS011;20339;49.754;20.158;2022-12-22T06:25:03;6.30;;;4.10;;
34064;SDS011;20339;49.754;20.158;2022-12-22T06:27:39;8.80;;;5.40;;
34064;SDS011;20339;49.754;20.158;2022-12-22T06:30:11;7.50;;;3.80;;
34064;SDS011;20339;49.754;20.158;2022-12-22T06:32:44;7.80;;;4.80;;
34064;SDS011;20339;49.754;20.158;2022-12-22T06:35:17;5.60;;;3.80;;
34064;SDS011;20339;49.754;20.158;2022-12-22T06:37:49;5.40;;;3.50;;
34064;SDS011;20339;49.754;20.158;2022-12-22T06:40:20;7.90;;;4.80;;
34064;SDS011;20339;49.754;20.158;2022-12-22T06:42:52;9.70;;;6.10;;
34064;SDS011;20339;49.754;20.158;2022-12-22T06:45:39;7.70;;;4.60;;
34064;SDS011;20339;49.754;20.158;2022-12-22T06:48:14;9.70;;;6.00;;
34064;SDS011;20339;49.754;20.158;2022-12-22T06:50:48;7.10;;;4.30;;
34064;SDS011;20339;49.754;20.158;2022-12-22T06:53:26;8.50;;;6.10;;
34064;SDS011;20339;49.754;20.158;2022-12-22T06:55:58;3.90;;;2.80;;
34064;SDS011;20339;49.754;20.158;2022-12-22T06:58:31;5.60;;;2.80;;
34064;SDS011;20339;49.754;20.158;2022-12-22T07:01:01;5.20;;;3.10;;
34064;SDS011;20339;49.754;20.158;2022-12-22T07:03:35;6.60;;;4.00;;
34064;SDS011;20339;49.754;20.158;2022-12-22T07:06:07;8.10;;;4.00;;
34064;SDS011;20339;49.754;20.158;2022-12-22T07:08:39;5.90;;;3.90;;
34064;SDS011;20339;49.754;20.158;2022-12-22T07:11:10;10.70;;;5.50;;
34064;SDS011;20339;49.754;20.158;2022-12-22T07:13:43;9.00;;;4.80;;
34064;SDS011;20339;49.754;20.158;2022-12-22T07:16:15;7.80;;;4.30;;
34064;SDS011;20339;49.754;20.158;2022-12-22T07:18:47;4.10;;;2.70;;
34064;SDS011;20339;49.754;20.158;2022-12-22T07:21:20;8.80;;;5.90;;
34064;SDS011;20339;49.754;20.158;2022-12-22T07:23:59;6.40;;;4.10;;
34064;SDS011;20339;49.754;20.158;2022-12-22T07:26:30;9.80;;;5.90;;
34064;SDS011;20339;49.754;20.158;2022-12-22T07:29:05;9.30;;;5.50;;
34064;SDS011;20339;49.754;20.158;2022-12-22T07:31:38;8.30;;;5.20;;
34064;SDS011;20339;49.754;20.158;2022-12-22T07:34:12;7.10;;;4.30;;
34064;SDS011;20339;49.754;20.158;2022-12-22T07:36:47;7.80;;;4.20;;
34064;SDS011;20339;49.754;20.158;2022-12-22T07:39:22;7.20;;;4.20;;
34064;SDS011;20339;49.754;20.158;2022-12-22T07:41:53;6.90;;;4.30;;
34064;SDS011;20339;49.754;20.158;2022-12-22T07:44:45;7.70;;;4.70;;
34064;SDS011;20339;49.754;20.158;2022-12-22T07:47:21;9.50;;;6.30;;
34064;SDS011;20339;49.754;20.158;2022-12-22T07:49:52;9.50;;;5.30;;
34064;SDS011;20339;49.754;20.158;2022-12-22T07:52:43;8.20;;;5.30;;
34064;SDS011;20339;49.754;20.158;2022-12-22T07:55:14;7.30;;;3.90;;
34064;SDS011;20339;49.754;20.158;2022-12-22T07:57:50;6.40;;;4.20;;
34064;SDS011;20339;49.754;20.158;2022-12-22T08:00:25;4.60;;;2.90;;
34064;SDS011;20339;49.754;20.158;2022-12-22T08:02:57;7.80;;;4.70;;
34064;SDS011;20339;49.754;20.158;2022-12-22T08:05:29;5.70;;;2.90;;
34064;SDS011;20339;49.754;20.158;2022-12-22T08:08:03;4.60;;;3.20;;
34064;SDS011;20339;49.754;20.158;2022-12-22T08:10:39;5.60;;;3.80;;
34064;SDS011;20339;49.754;20.158;2022-12-22T08:13:10;6.40;;;3.60;;
34064;SDS011;20339;49.754;20.158;2022-12-22T08:15:42;5.60;;;3.60;;
34064;SDS011;20339;49.754;20.158;2022-12-22T08:18:13;4.60;;;3.00;;
34064;SDS011;20339;49.754;20.158;2022-12-22T08:20:48;6.10;;;4.10;;
34064;SDS011;20339;49.754;20.158;2022-12-22T08:23:23;7.80;;;4.20;;
34064;SDS011;20339;49.754;20.158;2022-12-22T08:25:59;6.00;;;4.20;;
34064;SDS011;20339;49.754;20.158;2022-12-22T08:28:35;7.90;;;4.40;;
34064;SDS011;20339;49.754;20.158;2022-12-22T08:31:12;5.60;;;4.10;;
34064;SDS011;20339;49.754;20.158;2022-12-22T08:33:44;5.20;;;3.30;;
34064;SDS011;20339;49.754;20.158;2022-12-22T08:36:16;6.10;;;3.80;;
34064;SDS011;20339;49.754;20.158;2022-12-22T08:38:50;6.20;;;4.00;;
34064;SDS011;20339;49.754;20.158;2022-12-22T08:41:21;6.50;;;3.70;;
34064;SDS011;20339;49.754;20.158;2022-12-22T08:44:06;6.00;;;3.70;;
34064;SDS011;20339;49.754;20.158;2022-12-22T08:46:38;6.80;;;3.40;;
34064;SDS011;20339;49.754;20.158;2022-12-22T08:49:09;5.50;;;3.70;;
34064;SDS011;20339;49.754;20.158;2022-12-22T08:51:40;5.10;;;3.20;;
34064;SDS011;20339;49.754;20.158;2022-12-22T08:54:16;6.70;;;4.30;;
34064;SDS011;20339;49.754;20.158;2022-12-22T08:56:51;5.90;;;4.10;;
34064;SDS011;20339;49.754;20.158;2022-12-22T08:59:28;6.00;;;4.10;;
34064;SDS011;20339;49.754;20.158;2022-12-22T09:01:59;6.90;;;4.50;;
34064;SDS011;20339;49.754;20.158;2022-12-22T09:04:32;7.20;;;4.50;;
34064;SDS011;20339;49.754;20.158;2022-12-22T09:07:06;6.30;;;3.90;;
34064;SDS011;20339;49.754;20.158;2022-12-22T09:09:49;4.70;;;3.60;;
34064;SDS011;20339;49.754;20.158;2022-12-22T09:12:21;5.70;;;3.20;;
34064;SDS011;20339;49.754;20.158;2022-12-22T09:14:52;4.80;;;3.60;;
34064;SDS011;20339;49.754;20.158;2022-12-22T09:17:26;6.70;;;3.20;;
34064;SDS011;20339;49.754;20.158;2022-12-22T09:19:57;7.60;;;4.70;;
34064;SDS011;20339;49.754;20.158;2022-12-22T09:22:31;6.90;;;4.60;;
34064;SDS011;20339;49.754;20.158;2022-12-22T09:25:04;7.90;;;5.10;;
34064;SDS011;20339;49.754;20.158;2022-12-22T09:27:36;6.40;;;4.40;;
34064;SDS011;20339;49.754;20.158;2022-12-22T09:30:08;5.70;;;3.40;;
34064;SDS011;20339;49.754;20.158;2022-12-22T09:32:41;7.20;;;4.60;;
34064;SDS011;20339;49.754;20.158;2022-12-22T09:35:14;7.50;;;4.60;;
34064;SDS011;20339;49.754;20.158;2022-12-22T09:37:49;7.00;;;4.00;;
34064;SDS011;20339;49.754;20.158;2022-12-22T09:40:20;8.10;;;4.40;;
34064;SDS011;20339;49.754;20.158;2022-12-22T09:42:54;7.30;;;5.10;;
34064;SDS011;20339;49.754;20.158;2022-12-22T09:45:34;6.70;;;4.20;;
34064;SDS011;20339;49.754;20.158;2022-12-22T09:48:09;7.00;;;4.00;;
34064;SDS011;20339;49.754;20.158;2022-12-22T09:50:42;6.50;;;3.80;;
34064;SDS011;20339;49.754;20.158;2022-12-22T09:53:15;7.00;;;4.20;;
34064;SDS011;20339;49.754;20.158;2022-12-22T09:55:49;6.70;;;4.60;;
34064;SDS011;20339;49.754;20.158;2022-12-22T09:58:22;6.80;;;4.50;;
34064;SDS011;20339;49.754;20.158;2022-12-22T10:01:01;7.50;;;3.90;;
34064;SDS011;20339;49.754;20.158;2022-12-22T10:03:49;6.00;;;4.00;;
34064;SDS011;20339;49.754;20.158;2022-12-22T10:06:28;6.00;;;3.40;;
34064;SDS011;20339;49.754;20.158;2022-12-22T10:09:13;6.30;;;4.10;;
34064;SDS011;20339;49.754;20.158;2022-12-22T10:11:51;5.90;;;3.00;;
34064;SDS011;20339;49.754;20.158;2022-12-22T10:14:28;5.90;;;3.40;;
34064;SDS011;20339;49.754;20.158;2022-12-22T10:17:14;6.50;;;4.10;;
34064;SDS011;20339;49.754;20.158;2022-12-22T10:19:48;6.60;;;3.90;;
34064;SDS011;20339;49.754;20.158;2022-12-22T10:22:29;6.30;;;4.20;;
34064;SDS011;20339;49.754;20.158;2022-12-22T10:25:04;6.10;;;4.10;;
34064;SDS011;20339;49.754;20.158;2022-12-22T10:27:53;6.30;;;4.40;;
34064;SDS011;20339;49.754;20.158;2022-12-22T10:30:27;6.80;;;4.40;;
34064;SDS011;20339;49.754;20.158;2022-12-22T10:33:04;5.50;;;3.60;;
34064;SDS011;20339;49.754;20.158;2022-12-22T10:35:42;6.00;;;3.80;;
34064;SDS011;20339;49.754;20.158;2022-12-22T10:38:20;6.10;;;3.70;;
34064;SDS011;20339;49.754;20.158;2022-12-22T10:41:01;5.50;;;3.70;;
34064;SDS011;20339;49.754;20.158;2022-12-22T10:43:38;5.60;;;3.50;;
34064;SDS011;20339;49.754;20.158;2022-12-22T10:46:16;4.30;;;2.90;;
34064;SDS011;20339;49.754;20.158;2022-12-22T10:49:07;5.00;;;3.30;;
34064;SDS011;20339;49.754;20.158;2022-12-22T10:51:44;6.40;;;3.90;;
34064;SDS011;20339;49.754;20.158;2022-12-22T10:54:28;5.90;;;4.00;;
34064;SDS011;20339;49.754;20.158;2022-12-22T10:57:02;6.60;;;4.30;;
34064;SDS011;20339;49.754;20.158;2022-12-22T10:59:54;7.90;;;4.30;;
34064;SDS011;20339;49.754;20.158;2022-12-22T11:02:33;6.90;;;4.70;;
34064;SDS011;20339;49.754;20.158;2022-12-22T11:05:07;5.00;;;2.90;;
34064;SDS011;20339;49.754;20.158;2022-12-22T11:07:41;7.00;;;4.10;;
34064;SDS011;20339;49.754;20.158;2022-12-22T11:10:22;7.50;;;4.90;;
34064;SDS011;20339;49.754;20.158;2022-12-22T11:13:10;7.50;;;4.80;;
34064;SDS011;20339;49.754;20.158;2022-12-22T11:16:01;8.70;;;5.10;;
34064;SDS011;20339;49.754;20.158;2022-12-22T11:18:44;10.00;;;6.30;;
34064;SDS011;20339;49.754;20.158;2022-12-22T11:21:25;8.30;;;5.70;;
34064;SDS011;20339;49.754;20.158;2022-12-22T11:24:06;9.20;;;6.20;;
34064;SDS011;20339;49.754;20.158;2022-12-22T11:26:53;9.20;;;5.90;;
34064;SDS011;20339;49.754;20.158;2022-12-22T11:29:43;10.00;;;5.90;;
34064;SDS011;20339;49.754;20.158;2022-12-22T11:32:35;11.50;;;6.90;;
34064;SDS011;20339;49.754;20.158;2022-12-22T11:35:33;8.70;;;5.70;;
34064;SDS011;20339;49.754;20.158;2022-12-22T11:38:18;9.60;;;6.60;;
34064;SDS011;20339;49.754;20.158;2022-12-22T11:40:56;8.70;;;5.60;;
34064;SDS011;20339;49.754;20.158;2022-12-22T11:43:37;8.90;;;5.90;;
34064;SDS011;20339;49.754;20.158;2022-12-22T11:46:24;9.40;;;6.20;;
34064;SDS011;20339;49.754;20.158;2022-12-22T11:52:09;8.40;;;5.30;;
34064;SDS011;20339;49.754;20.158;2022-12-22T11:55:03;9.40;;;5.90;;
34064;SDS011;20339;49.754;20.158;2022-12-22T11:57:57;8.10;;;5.30;;
34064;SDS011;20339;49.754;20.158;2022-12-22T12:00:41;10.00;;;6.30;;
34064;SDS011;20339;49.754;20.158;2022-12-22T12:06:42;8.90;;;5.70;;
34064;SDS011;20339;49.754;20.158;2022-12-22T12:09:31;8.60;;;5.10;;
34064;SDS011;20339;49.754;20.158;2022-12-22T12:12:13;7.70;;;3.90;;
34064;SDS011;20339;49.754;20.158;2022-12-22T12:14:57;6.60;;;4.50;;
34064;SDS011;20339;49.754;20.158;2022-12-22T12:17:46;7.70;;;4.90;;
34064;SDS011;20339;49.754;20.158;2022-12-22T12:20:40;6.20;;;4.40;;
34064;SDS011;20339;49.754;20.158;2022-12-22T12:23:34;6.00;;;4.10;;
34064;SDS011;20339;49.754;20.158;2022-12-22T12:26:24;7.40;;;4.80;;
34064;SDS011;20339;49.754;20.158;2022-12-22T12:29:04;7.10;;;4.60;;
34064;SDS011;20339;49.754;20.158;2022-12-22T12:34:14;7.50;;;4.60;;
34064;SDS011;20339;49.754;20.158;2022-12-22T12:36:48;6.00;;;4.00;;
34064;SDS011;20339;49.754;20.158;2022-12-22T12:39:28;7.70;;;5.20;;
34064;SDS011;20339;49.754;20.158;2022-12-22T12:42:10;6.30;;;4.70;;
34064;SDS011;20339;49.754;20.158;2022-12-22T12:44:52;6.40;;;3.90;;
34064;SDS011;20339;49.754;20.158;2022-12-22T12:47:25;7.20;;;4.20;;
34064;SDS011;20339;49.754;20.158;2022-12-22T12:49:59;7.20;;;4.60;;
34064;SDS011;20339;49.754;20.158;2022-12-22T12:55:49;9.10;;;4.40;;
34064;SDS011;20339;49.754;20.158;2022-12-22T13:13:50;7.60;;;5.70;;
34064;SDS011;20339;49.754;20.158;2022-12-22T13:16:31;8.40;;;4.80;;
34064;SDS011;20339;49.754;20.158;2022-12-22T13:19:10;10.10;;;6.40;;
34064;SDS011;20339;49.754;20.158;2022-12-22T13:21:47;9.60;;;5.10;;
34064;SDS011;20339;49.754;20.158;2022-12-22T13:24:24;9.00;;;6.10;;
34064;SDS011;20339;49.754;20.158;2022-12-22T13:27:04;8.50;;;4.80;;
34064;SDS011;20339;49.754;20.158;2022-12-22T13:29:42;7.30;;;4.40;;
34064;SDS011;20339;49.754;20.158;2022-12-22T13:32:23;10.90;;;6.30;;
34064;SDS011;20339;49.754;20.158;2022-12-22T13:35:03;9.80;;;6.40;;
34064;SDS011;20339;49.754;20.158;2022-12-22T13:37:43;7.10;;;4.90;;
34064;SDS011;20339;49.754;20.158;2022-12-22T13:40:17;9.60;;;6.10;;
34064;SDS011;20339;49.754;20.158;2022-12-22T13:42:51;10.10;;;5.90;;
34064;SDS011;20339;49.754;20.158;2022-12-22T13:45:27;8.30;;;5.30;;
34064;SDS011;20339;49.754;20.158;2022-12-22T13:48:03;7.70;;;4.10;;
34064;SDS011;20339;49.754;20.158;2022-12-22T13:50:42;8.20;;;5.20;;
34064;SDS011;20339;49.754;20.158;2022-12-22T13:53:19;8.70;;;5.50;;
34064;SDS011;20339;49.754;20.158;2022-12-22T13:55:56;7.30;;;4.80;;
34064;SDS011;20339;49.754;20.158;2022-12-22T13:58:29;9.30;;;5.80;;
34064;SDS011;20339;49.754;20.158;2022-12-22T14:01:12;7.50;;;4.60;;
34064;SDS011;20339;49.754;20.158;2022-12-22T14:03:49;9.20;;;5.10;;
34064;SDS011;20339;49.754;20.158;2022-12-22T14:09:09;9.10;;;4.60;;
34064;SDS011;20339;49.754;20.158;2022-12-22T14:11:44;5.20;;;3.50;;
34064;SDS011;20339;49.754;20.158;2022-12-22T14:14:18;5.80;;;3.70;;
34064;SDS011;20339;49.754;20.158;2022-12-22T14:16:53;7.60;;;4.40;;
34064;SDS011;20339;49.754;20.158;2022-12-22T14:19:29;8.60;;;5.30;;
34064;SDS011;20339;49.754;20.158;2022-12-22T14:22:03;5.60;;;3.90;;
34064;SDS011;20339;49.754;20.158;2022-12-22T14:24:40;8.00;;;5.20;;
34064;SDS011;20339;49.754;20.158;2022-12-22T14:27:25;7.30;;;5.30;;
34064;SDS011;20339;49.754;20.158;2022-12-22T14:32:37;8.80;;;4.30;;
34064;SDS011;20339;49.754;20.158;2022-12-22T14:35:22;7.00;;;4.50;;
34064;SDS011;20339;49.754;20.158;2022-12-22T14:38:06;6.70;;;4.20;;
34064;SDS011;20339;49.754;20.158;2022-12-22T14:40:53;8.00;;;3.50;;
34064;SDS011;20339;49.754;20.158;2022-12-22T14:43:28;6.40;;;3.60;;
34064;SDS011;20339;49.754;20.158;2022-12-22T14:46:01;5.10;;;3.30;;
34064;SDS011;20339;49.754;20.158;2022-12-22T14:48:35;6.30;;;3.80;;
34064;SDS011;20339;49.754;20.158;2022-12-22T14:51:16;10.10;;;4.90;;
34064;SDS011;20339;49.754;20.158;2022-12-22T14:53:49;7.50;;;4.10;;
34064;SDS011;20339;49.754;20.158;2022-12-22T14:56:24;6.50;;;3.80;;
34064;SDS011;20339;49.754;20.158;2022-12-22T15:01:58;5.40;;;3.40;;
34064;SDS011;20339;49.754;20.158;2022-12-22T15:04:31;6.30;;;3.20;;
34064;SDS011;20339;49.754;20.158;2022-12-22T15:07:13;6.40;;;2.90;;
34064;SDS011;20339;49.754;20.158;2022-12-22T15:09:49;6.20;;;3.90;;
34064;SDS011;20339;49.754;20.158;2022-12-22T15:12:20;5.60;;;3.30;;
34064;SDS011;20339;49.754;20.158;2022-12-22T15:14:51;4.50;;;2.80;;
34064;SDS011;20339;49.754;20.158;2022-12-22T15:17:23;5.00;;;3.80;;
34064;SDS011;20339;49.754;20.158;2022-12-22T15:19:55;6.50;;;3.90;;
34064;SDS011;20339;49.754;20.158;2022-12-22T15:22:27;4.50;;;3.20;;
34064;SDS011;20339;49.754;20.158;2022-12-22T15:24:59;4.90;;;2.90;;
34064;SDS011;20339;49.754;20.158;2022-12-22T15:27:30;7.30;;;4.10;;
34064;SDS011;20339;49.754;20.158;2022-12-22T15:30:02;6.50;;;3.20;;
34064;SDS011;20339;49.754;20.158;2022-12-22T15:32:37;7.00;;;3.80;;
34064;SDS011;20339;49.754;20.158;2022-12-22T15:35:18;5.60;;;3.90;;
34064;SDS011;20339;49.754;20.158;2022-12-22T15:37:54;7.90;;;5.20;;
34064;SDS011;20339;49.754;20.158;2022-12-22T15:40:25;8.10;;;4.20;;
34064;SDS011;20339;49.754;20.158;2022-12-22T15:42:57;8.20;;;4.00;;
34064;SDS011;20339;49.754;20.158;2022-12-22T15:45:28;6.00;;;3.90;;
34064;SDS011;20339;49.754;20.158;2022-12-22T15:48:05;8.30;;;3.10;;
34064;SDS011;20339;49.754;20.158;2022-12-22T15:50:39;6.80;;;3.10;;
34064;SDS011;20339;49.754;20.158;2022-12-22T15:53:13;6.90;;;4.70;;
34064;SDS011;20339;49.754;20.158;2022-12-22T15:55:49;6.90;;;4.20;;
34064;SDS011;20339;49.754;20.158;2022-12-22T15:58:24;7.00;;;3.00;;
34064;SDS011;20339;49.754;20.158;2022-12-22T16:01:00;6.50;;;3.20;;
34064;SDS011;20339;49.754;20.158;2022-12-22T16:03:31;7.50;;;4.10;;
34064;SDS011;20339;49.754;20.158;2022-12-22T16:06:04;7.30;;;4.30;;
34064;SDS011;20339;49.754;20.158;2022-12-22T16:08:42;8.70;;;6.00;;
34064;SDS011;20339;49.754;20.158;2022-12-22T16:11:16;8.70;;;4.90;;
34064;SDS011;20339;49.754;20.158;2022-12-22T16:13:49;7.20;;;4.80;;
34064;SDS011;20339;49.754;20.158;2022-12-22T16:16:21;8.20;;;5.20;;
34064;SDS011;20339;49.754;20.158;2022-12-22T16:18:53;7.00;;;3.80;;